Time;durP1;ratioP1;P1;durP2;ratioP2;P2;SDS_P1;SDS_P2;PMS_P1;PMS_P2;Temp;Humidity;BMP_temperature;BMP_pressure;BME280_temperature;BME280_humidity;BME280_pressure;Samples;Min_cycle;Max_cycle;Signal;HPM_P1;HPM_P2
2022/12/04 00:00:20;;;;;;;9.43;4.90;;;;;;;19.62;60.73;98011.72;2070933;28;20103;-45
2022/12/04 00:01:24;;;;;;;9.35;5.20;;;;;;;19.65;60.52;98008.59;2071128;28;20050;-49
2022/12/04 00:02:24;;;;;;;13.70;4.68;;;;;;;19.67;60.55;98006.53;2070296;28;20049;-47
2022/12/04 00:03:26;;;;;;;;;;;;;;;19.56;61.18;97993.81;2073628;28;20049;-47
2022/12/04 00:04:27;;;;;;;10.27;4.63;;;;;;;19.59;60.89;97999.56;2070992;28;19963;-46
2022/12/04 00:05:28;;;;;;;;;;;;;;;19.52;61.17;97993.41;2070319;28;20505;-50
2022/12/04 00:06:32;;;;;;;;;;;;;;;19.45;60.95;98003.44;2070594;28;19972;-47
2022/12/04 00:07:33;;;;;;;8.75;4.55;;;;;;;19.51;61.61;98020.56;2071078;28;19925;-48
2022/12/04 00:08:35;;;;;;;8.38;5.03;;;;;;;19.58;61.20;98013.22;2069435;28;20077;-46
2022/12/04 00:09:37;;;;;;;5.05;4.53;;;;;;;19.62;60.84;98027.88;2070163;28;20050;-46
2022/12/04 00:10:41;;;;;;;8.85;4.25;;;;;;;19.65;61.08;98016.66;2070776;28;20504;-47
2022/12/04 00:11:43;;;;;;;7.07;4.22;;;;;;;19.64;60.61;98017.72;2069038;28;20057;-48
2022/12/04 00:12:44;;;;;;;7.35;4.32;;;;;;;19.64;61.01;98026.59;2071082;28;20052;-46
2022/12/04 00:13:46;;;;;;;;;;;;;;;19.53;60.84;98029.19;2070378;28;20565;-47
2022/12/04 00:14:46;;;;;;;8.80;4.78;;;;;;;19.56;60.97;98028.78;2069823;28;19925;-50
2022/12/04 00:15:48;;;;;;;;;;;;;;;19.48;61.39;98029.06;2070204;28;20136;-47
2022/12/04 00:16:49;;;;;;;7.28;4.38;;;;;;;19.53;61.18;98032.75;2070086;28;20657;-46
2022/12/04 00:17:51;;;;;;;9.98;4.93;;;;;;;19.57;61.10;98023.16;2069089;28;20145;-47
2022/12/04 00:18:53;;;;;;;5.90;3.97;;;;;;;19.60;60.73;98021.88;2068279;28;20058;-46
2022/12/04 00:19:54;;;;;;;8.07;3.72;;;;;;;19.61;60.95;98021.69;2069887;28;20052;-46
2022/12/04 00:20:55;;;;;;;;;;;;;;;19.50;61.05;98010.81;2070769;28;20064;-46
2022/12/04 00:21:57;;;;;;;7.22;4.63;;;;;;;19.55;60.63;98002.91;2069993;28;19944;-46
2022/12/04 00:22:59;;;;;;;8.27;3.85;;;;;;;19.56;61.28;98002.69;2071000;28;20049;-47
2022/12/04 00:24:00;;;;;;;5.65;4.43;;;;;;;19.59;61.17;98006.81;2067999;28;20129;-46
2022/12/04 00:25:01;;;;;;;;;;;;;;;19.48;61.28;98003.00;2070280;28;20058;-46
2022/12/04 00:26:04;;;;;;;6.88;4.35;;;;;;;19.51;61.47;98001.72;2068561;28;20550;-46
2022/12/04 00:27:05;;;;;;;6.78;3.67;;;;;;;19.54;61.29;98001.28;2067509;28;22145;-46
2022/12/04 00:28:06;;;;;;;5.60;3.65;;;;;;;19.55;60.94;98001.03;2068056;28;20053;-46
2022/12/04 00:29:08;;;;;;;;;;;;;;;19.46;61.14;98009.66;2070746;28;20132;-46
2022/12/04 00:30:10;;;;;;;8.13;4.40;;;;;;;19.48;61.31;98010.25;2069426;28;19940;-47
2022/12/04 00:31:14;;;;;;;8.95;3.67;;;;;;;19.51;61.07;98007.09;2070205;28;20079;-46
2022/12/04 00:32:15;;;;;;;10.73;4.25;;;;;;;19.53;61.13;98005.84;2067049;28;20053;-47
2022/12/04 00:33:16;;;;;;;;;;;;;;;19.41;61.19;98019.19;2070222;28;20606;-46
2022/12/04 00:34:17;;;;;;;;;;;;;;;19.33;61.58;98018.66;2070295;28;19921;-47
2022/12/04 00:35:19;;;;;;;8.02;4.45;;;;;;;19.37;61.34;98012.63;2070484;28;20036;-46
2022/12/04 00:36:22;;;;;;;6.88;4.38;;;;;;;19.45;61.35;98010.69;2072948;28;20049;-48
2022/12/04 00:37:25;;;;;;;6.68;3.95;;;;;;;19.47;61.57;98011.28;2070748;28;20049;-46
2022/12/04 00:38:27;;;;;;;8.15;4.07;;;;;;;19.48;61.04;98016.44;2069505;28;20056;-46
2022/12/04 00:39:29;;;;;;;11.48;4.75;;;;;;;19.48;61.03;98015.63;2071819;28;20080;-50
2022/12/04 00:40:29;;;;;;;6.05;4.25;;;;;;;19.50;61.27;98018.91;2073425;28;20045;-48
2022/12/04 00:41:32;;;;;;;;;;;;;;;19.36;61.52;98021.75;2072120;28;20033;-46
2022/12/04 00:42:32;;;;;;;8.00;3.97;;;;;;;19.40;61.72;98019.44;2070071;28;19925;-49
2022/12/04 00:43:34;;;;;;;;;;;;;;;19.30;61.81;98011.06;2074430;28;20141;-48
2022/12/04 00:44:36;;;;;;;6.55;4.45;;;;;;;19.36;61.76;98010.16;2073472;28;20015;-47
2022/12/04 00:45:37;;;;;;;5.63;3.70;;;;;;;19.39;61.35;98009.72;2071259;28;20509;-46
2022/12/04 00:46:38;;;;;;;;;;;;;;;19.28;61.80;98013.97;2070076;28;20052;-48
2022/12/04 00:47:39;;;;;;;10.82;4.88;;;;;;;19.30;61.66;98011.06;2070919;28;19921;-48
2022/12/04 00:48:41;;;;;;;;;;;;;;;19.23;62.13;98011.13;2069711;28;20050;-46
2022/12/04 00:49:42;;;;;;;6.65;4.15;;;;;;;19.30;61.64;98011.88;2072311;28;19949;-47
2022/12/04 00:50:43;;;;;;;;;;;;;;;19.24;61.66;98012.75;2070756;28;20152;-46
2022/12/04 00:51:44;;;;;;;9.52;4.18;;;;;;;19.27;62.05;98004.25;2070136;28;19925;-47
2022/12/04 00:52:47;;;;;;;;;;;;;;;19.19;62.02;98007.22;2069866;28;20038;-46
2022/12/04 00:53:49;;;;;;;5.40;3.58;;;;;;;19.26;61.86;98002.63;2068939;28;19929;-45
2022/12/04 00:54:50;;;;;;;5.35;3.58;;;;;;;19.30;61.55;98006.50;2069232;28;20106;-46
2022/12/04 00:55:51;;;;;;;;;;;;;;;19.23;62.08;98004.94;2071395;28;20053;-47
2022/12/04 00:56:52;;;;;;;;;;;;;;;19.14;62.02;98007.09;2070693;28;20447;-48
2022/12/04 00:57:54;;;;;;;5.38;3.70;;;;;;;19.17;62.41;98004.78;2071553;28;19925;-48
2022/12/04 00:58:57;;;;;;;6.80;4.10;;;;;;;19.23;61.99;98010.31;2068855;28;20057;-46
2022/12/04 00:59:59;;;;;;;7.07;3.65;;;;;;;19.28;61.77;98008.59;2071592;28;20153;-47
2022/12/04 01:01:06;;;;;;;9.93;3.33;;;;;;;19.31;61.77;98012.72;2068295;28;20053;-45
2022/12/04 01:02:07;;;;;;;5.38;4.00;;;;;;;19.31;61.62;98010.03;2066759;28;20057;-45
2022/12/04 01:03:08;;;;;;;7.97;4.70;;;;;;;19.31;61.55;98013.53;2068332;28;20060;-47
2022/12/04 01:04:10;;;;;;;;;;;;;;;19.19;62.02;98009.91;2069730;28;20133;-47
2022/12/04 01:05:12;;;;;;;6.63;4.22;;;;;;;19.21;61.85;98013.22;2067898;28;19932;-47
2022/12/04 01:06:19;;;;;;;7.75;4.18;;;;;;;19.24;61.53;98012.75;2066946;28;20135;-46
2022/12/04 01:07:20;;;;;;;7.25;4.22;;;;;;;19.25;61.78;98017.13;2067838;28;20110;-45
2022/12/04 01:08:23;;;;;;;;;;;;;;;19.13;62.03;98010.81;2068763;28;20925;-45
2022/12/04 01:09:25;;;;;;;6.93;4.60;;;;;;;19.17;62.31;98017.41;2068328;28;20313;-47
2022/12/04 01:10:25;;;;;;;6.20;4.22;;;;;;;19.19;61.99;98016.13;2067582;28;20049;-46
2022/12/04 01:11:28;;;;;;;;;;;;;;;19.07;62.71;98011.69;2068702;28;20069;-46
2022/12/04 01:12:29;;;;;;;6.80;4.05;;;;;;;19.12;62.57;98019.94;2068684;28;19922;-49
2022/12/04 01:13:31;;;;;;;7.25;3.70;;;;;;;19.12;62.53;98012.69;2068553;28;20104;-48
2022/12/04 01:14:32;;;;;;;6.20;3.67;;;;;;;19.16;62.29;98015.75;2070250;28;20057;-47
2022/12/04 01:15:37;;;;;;;5.20;3.60;;;;;;;19.19;62.05;98015.28;2067288;28;20046;-45
2022/12/04 01:16:40;;;;;;;7.10;3.90;;;;;;;19.21;62.11;98023.97;2067935;28;20144;-47
2022/12/04 01:17:40;;;;;;;6.80;4.03;;;;;;;19.17;62.08;98015.53;2069433;28;20132;-46
2022/12/04 01:18:42;;;;;;;;;;;;;;;19.05;62.46;98016.47;2068234;28;22034;-45
2022/12/04 01:19:43;;;;;;;7.07;4.25;;;;;;;19.06;62.75;98020.81;2067243;28;19925;-45
2022/12/04 01:20:47;;;;;;;;;;;;;;;18.96;62.76;98032.88;2069010;28;20054;-47
2022/12/04 01:21:49;;;;;;;7.20;3.78;;;;;;;19.02;62.62;98030.34;2067558;28;19928;-46
2022/12/04 01:22:50;;;;;;;6.57;4.07;;;;;;;19.08;62.34;98035.66;2067502;28;20053;-47
2022/12/04 01:23:52;;;;;;;;;;;;;;;18.98;62.50;98035.34;2069822;28;20045;-48
2022/12/04 01:24:54;;;;;;;6.35;3.22;;;;;;;19.01;62.54;98036.78;2066508;28;19925;-46
2022/12/04 01:25:58;;;;;;;6.18;3.55;;;;;;;19.07;62.30;98044.78;2070607;28;20053;-45
2022/12/04 01:26:59;;;;;;;6.53;3.40;;;;;;;19.08;62.48;98042.91;2067066;28;20119;-46
2022/12/04 01:28:01;;;;;;;;;;;;;;;18.97;62.73;98045.28;2067071;28;20103;-44
2022/12/04 01:29:01;;;;;;;;;;;;;;;18.89;62.95;98045.56;2067720;28;20552;-46
2022/12/04 01:30:03;;;;;;;4.90;2.97;;;;;;;18.92;63.00;98047.81;2067423;28;19929;-47
2022/12/04 01:31:07;;;;;;;8.30;4.55;;;;;;;19.01;62.66;98052.91;2067698;28;20049;-46
2022/12/04 01:32:08;;;;;;;4.03;2.75;;;;;;;19.03;62.37;98053.47;2065189;28;20046;-45
2022/12/04 01:33:09;;;;;;;5.03;3.92;;;;;;;19.05;62.15;98046.84;2067681;28;20041;-47
2022/12/04 01:34:11;;;;;;;;;;;;;;;18.95;62.41;98055.44;2071138;28;20073;-45
2022/12/04 01:35:12;;;;;;;7.78;3.78;;;;;;;18.98;62.41;98068.41;2070510;28;19925;-46
2022/12/04 01:36:14;;;;;;;;;;;;;;;18.90;62.60;98071.38;2069480;28;20050;-44
2022/12/04 01:37:15;;;;;;;4.53;3.25;;;;;;;18.96;62.70;98077.75;2066383;28;19925;-46
2022/12/04 01:38:17;;;;;;;;;;;;;;;18.87;62.62;98087.13;2067567;28;20517;-47
2022/12/04 01:39:20;;;;;;;7.13;4.03;;;;;;;18.93;62.70;98100.50;2067901;28;19929;-47
2022/12/04 01:40:21;;;;;;;13.20;3.90;;;;;;;18.94;62.70;98101.31;2069309;28;20049;-48
2022/12/04 01:41:24;;;;;;;;;;;;;;;18.83;62.87;98102.03;2069261;28;20049;-48
2022/12/04 01:42:25;;;;;;;7.53;3.88;;;;;;;18.89;63.03;98109.22;2068192;28;19928;-47
2022/12/04 01:43:29;;;;;;;6.97;3.30;;;;;;;18.92;62.65;98106.94;2068482;28;20498;-47
2022/12/04 01:44:31;;;;;;;6.95;3.60;;;;;;;18.94;62.79;98110.22;2068008;28;20053;-46
2022/12/04 01:45:41;;;;;;;7.53;3.45;;;;;;;18.96;62.16;98100.06;2067368;28;20132;-46
2022/12/04 01:46:44;;;;;;;5.47;3.45;;;;;;;18.97;62.42;98098.19;2070190;28;20057;-46
2022/12/04 01:47:45;;;;;;;5.78;3.53;;;;;;;18.97;62.38;98092.81;2070517;28;20057;-48
2022/12/04 01:48:50;;;;;;;;;;;;;;;18.85;62.45;98092.69;2068337;28;20057;-46
2022/12/04 01:49:51;;;;;;;6.55;3.38;;;;;;;18.90;62.58;98092.88;2068410;28;19929;-46
2022/12/04 01:50:56;;;;;;;;;;;;;;;18.83;62.49;98086.72;2068612;28;20054;-47
2022/12/04 01:52:02;;;;;;;6.65;3.70;;;;;;;18.85;62.59;98089.19;2070151;28;20916;-46
2022/12/04 01:53:03;;;;;;;5.00;3.63;;;;;;;18.88;62.55;98084.19;2066592;28;20049;-47
2022/12/04 01:54:05;;;;;;;;;;;;;;;18.78;62.78;98073.13;2068767;28;20478;-47
2022/12/04 01:55:08;;;;;;;5.53;2.90;;;;;;;18.82;62.67;98079.72;2068695;28;19925;-45
2022/12/04 01:56:11;;;;;;;13.32;4.55;;;;;;;18.90;62.24;98082.13;2069871;28;20046;-47
2022/12/04 01:57:15;;;;;;;8.00;3.08;;;;;;;18.90;62.38;98073.25;2066618;28;20064;-46
2022/12/04 01:58:22;;;;;;;5.80;3.25;;;;;;;18.89;62.60;98069.75;2069740;28;20184;-46
2022/12/04 01:59:29;;;;;;;7.43;3.63;;;;;;;18.89;62.41;98075.13;2068610;28;20057;-44
2022/12/04 02:00:31;;;;;;;7.22;3.75;;;;;;;18.89;62.22;98072.44;2068415;28;20054;-49
2022/12/04 02:01:39;;;;;;;7.20;3.58;;;;;;;18.91;62.26;98075.69;2067317;28;20057;-45
2022/12/04 02:02:43;;;;;;;9.63;3.85;;;;;;;18.90;62.59;98070.56;2068250;28;20144;-46
2022/12/04 02:03:43;;;;;;;6.55;3.35;;;;;;;18.90;62.52;98065.19;2068883;28;20057;-47
2022/12/04 02:04:46;;;;;;;;;;;;;;;18.77;62.83;98066.09;2069607;28;20519;-46
2022/12/04 02:05:46;;;;;;;4.85;3.10;;;;;;;18.81;63.00;98063.81;2067867;28;19929;-53
2022/12/04 02:06:48;;;;;;;;;;;;;;;18.69;62.87;98058.28;2072671;28;20053;-49
2022/12/04 02:07:51;;;;;;;5.97;2.72;;;;;;;18.76;62.98;98056.41;2067843;28;19925;-47
2022/12/04 02:08:53;;;;;;;9.13;2.85;;;;;;;18.81;62.78;98061.94;2066487;28;20046;-47
2022/12/04 02:09:54;;;;;;;5.28;3.17;;;;;;;18.82;62.66;98058.22;2068710;28;20058;-46
2022/12/04 02:11:10;;;;;;;8.32;4.07;;;;;;;18.83;62.68;98059.84;2066638;28;20050;-45
2022/12/04 02:12:18;;;;;;;6.45;3.38;;;;;;;18.82;62.78;98058.22;2067153;28;20494;-45
2022/12/04 02:13:26;;;;;;;7.53;3.80;;;;;;;18.82;62.76;98058.22;2068166;28;20500;-46
2022/12/04 02:14:37;;;;;;;5.47;3.20;;;;;;;18.82;62.48;98057.41;2068469;28;20057;-46
2022/12/04 02:15:45;;;;;;;10.43;3.28;;;;;;;18.80;62.84;98054.91;2068051;28;20061;-46
2022/12/04 02:16:55;;;;;;;7.40;3.47;;;;;;;18.80;62.64;98041.47;2068873;28;20049;-46
2022/12/04 02:18:04;;;;;;;6.10;3.33;;;;;;;18.80;62.40;98043.34;2065731;28;20054;-47
2022/12/04 02:19:20;;;;;;;7.30;3.13;;;;;;;18.75;62.62;98034.09;2069239;28;20444;-46
2022/12/04 02:20:31;;;;;;;4.53;3.28;;;;;;;18.75;62.62;98035.97;2068576;28;20425;-45
2022/12/04 02:21:35;;;;;;;;;;;;;;;18.62;63.17;98025.28;2070781;28;20049;-47
2022/12/04 02:22:54;;;;;;;5.72;3.03;;;;;;;18.64;62.96;98023.22;2067647;28;19971;-46
2022/12/04 02:24:32;;;;;;;6.38;3.53;;;;;;;18.67;62.98;98020.09;2068923;28;20072;-46
2022/12/04 02:25:43;;;;;;;4.40;3.00;;;;;;;18.69;62.84;98020.66;2070617;28;20041;-46
2022/12/04 02:26:51;;;;;;;6.85;3.90;;;;;;;18.70;63.13;98022.34;2070935;28;20049;-47
2022/12/04 02:28:01;;;;;;;5.30;3.47;;;;;;;18.71;62.87;98021.28;2069222;28;20402;-45
2022/12/04 02:29:08;;;;;;;5.97;3.60;;;;;;;18.74;63.08;98023.56;2068986;28;20055;-47
2022/12/04 02:30:12;;;;;;;6.97;3.40;;;;;;;18.73;62.79;98027.28;2069861;28;20045;-45
2022/12/04 02:31:19;;;;;;;6.13;3.42;;;;;;;18.72;62.64;98030.97;2069251;28;20088;-46
2022/12/04 02:32:22;;;;;;;7.40;3.22;;;;;;;18.73;62.79;98021.91;2067735;28;20592;-47
2022/12/04 02:33:28;;;;;;;5.40;3.47;;;;;;;18.72;62.81;98022.91;2068905;28;20042;-47
2022/12/04 02:34:39;;;;;;;6.47;3.33;;;;;;;18.70;63.15;98020.47;2070959;28;20046;-45
2022/12/04 02:35:46;;;;;;;4.30;3.40;;;;;;;18.68;63.06;98019.84;2069620;28;20065;-45
2022/12/04 02:36:53;;;;;;;7.63;3.35;;;;;;;18.67;63.11;98014.72;2068137;28;20437;-47
2022/12/04 02:37:59;;;;;;;5.13;2.88;;;;;;;18.65;63.01;98014.09;2070868;28;20050;-46
2022/12/04 02:39:06;;;;;;;5.88;2.85;;;;;;;18.64;62.93;98017.84;2071516;28;20073;-46
2022/12/04 02:40:13;;;;;;;4.88;3.10;;;;;;;18.64;63.07;98007.91;2070187;28;20049;-47
2022/12/04 02:41:18;;;;;;;5.38;3.35;;;;;;;18.65;63.09;98014.09;2072131;28;20068;-48
2022/12/04 02:42:29;;;;;;;3.10;2.72;;;;;;;18.64;63.02;98012.47;2070595;28;20053;-48
2022/12/04 02:43:35;;;;;;;5.83;2.70;;;;;;;18.63;63.15;98008.13;2071159;28;20053;-48
2022/12/04 02:44:42;;;;;;;7.28;3.67;;;;;;;18.65;62.88;98008.72;2073195;28;20327;-47
2022/12/04 02:45:45;;;;;;;6.97;3.40;;;;;;;18.67;63.11;98014.72;2070940;28;20509;-47
2022/12/04 02:46:51;;;;;;;5.40;3.40;;;;;;;18.63;62.96;98005.44;2071306;28;20104;-47
2022/12/04 02:47:54;;;;;;;6.40;2.72;;;;;;;18.61;62.91;98008.34;2069682;28;20045;-46
2022/12/04 02:49:00;;;;;;;4.78;2.55;;;;;;;18.61;63.08;98012.88;2070307;28;20138;-47
2022/12/04 02:50:04;;;;;;;6.50;2.60;;;;;;;18.61;63.11;98010.19;2070460;28;20050;-48
2022/12/04 02:51:07;;;;;;;7.55;3.35;;;;;;;18.59;63.33;98007.75;2072534;28;20049;-44
2022/12/04 02:52:12;;;;;;;6.78;3.35;;;;;;;18.58;63.24;98008.75;2072283;28;20052;-46
2022/12/04 02:53:18;;;;;;;8.43;3.15;;;;;;;18.57;63.18;98007.13;2069545;28;20883;-46
2022/12/04 02:54:25;;;;;;;5.43;2.97;;;;;;;18.58;62.98;98008.75;2070500;28;20046;-46
2022/12/04 02:55:31;;;;;;;4.78;2.72;;;;;;;18.58;63.16;98007.94;2071060;28;20084;-49
2022/12/04 02:56:36;;;;;;;6.93;2.65;;;;;;;18.54;63.24;98011.06;2070011;28;20057;-46
2022/12/04 02:57:44;;;;;;;5.78;3.15;;;;;;;18.56;62.97;98005.50;2069752;28;20053;-48
2022/12/04 02:58:49;;;;;;;4.00;2.80;;;;;;;18.56;62.87;98010.06;2070299;28;20046;-46
2022/12/04 02:59:53;;;;;;;4.00;2.67;;;;;;;18.53;63.10;98016.69;2070813;28;20064;-49
2022/12/04 03:00:56;;;;;;;4.35;3.13;;;;;;;18.53;63.31;98019.38;2069720;28;20053;-46
2022/12/04 03:02:06;;;;;;;4.72;2.78;;;;;;;18.54;63.12;98024.50;2071972;28;20052;-45
2022/12/04 03:03:13;;;;;;;6.05;3.25;;;;;;;18.51;62.79;98024.13;2072143;28;20064;-46
2022/12/04 03:04:18;;;;;;;7.00;3.53;;;;;;;18.50;63.29;98025.19;2070596;28;20050;-46
2022/12/04 03:05:28;;;;;;;5.53;2.97;;;;;;;18.47;63.05;98023.75;2070693;28;20722;-46
2022/12/04 03:06:34;;;;;;;5.70;2.90;;;;;;;18.47;63.07;98029.13;2062867;28;20061;-46
2022/12/04 03:07:42;;;;;;;7.38;2.10;;;;;;;18.47;63.14;98022.91;2069470;28;20065;-46
2022/12/04 03:08:48;;;;;;;4.00;3.38;;;;;;;18.48;63.12;98025.38;2072864;28;20045;-48
2022/12/04 03:09:53;;;;;;;6.15;2.85;;;;;;;18.47;63.12;98020.22;2071062;28;20108;-45
2022/12/04 03:10:59;;;;;;;5.68;3.40;;;;;;;18.47;63.16;98018.38;2072650;28;20058;-46
2022/12/04 03:12:06;;;;;;;5.07;2.75;;;;;;;18.48;63.11;98014.63;2069513;28;20054;-44
2022/12/04 03:13:12;;;;;;;3.80;2.88;;;;;;;18.47;62.76;98015.69;2070841;28;20065;-46
2022/12/04 03:14:17;;;;;;;5.15;3.20;;;;;;;18.47;63.24;98014.84;2072134;28;20056;-47
2022/12/04 03:15:26;;;;;;;4.25;3.35;;;;;;;18.46;62.98;98016.72;2072333;28;20042;-46
2022/12/04 03:16:32;;;;;;;4.82;2.92;;;;;;;18.47;63.05;98013.00;2070084;28;20050;-46
2022/12/04 03:17:39;;;;;;;7.25;3.17;;;;;;;18.45;63.50;98017.75;2071266;28;20056;-47
2022/12/04 03:18:43;;;;;;;4.22;2.70;;;;;;;18.43;62.86;98013.66;2070372;28;20046;-45
2022/12/04 03:19:51;;;;;;;6.13;3.20;;;;;;;18.44;63.20;98017.97;2072018;28;20077;-47
2022/12/04 03:21:02;;;;;;;5.07;2.90;;;;;;;18.41;63.24;98013.03;2071248;28;20053;-47
2022/12/04 03:22:09;;;;;;;4.22;2.72;;;;;;;18.39;63.19;98010.59;2071464;28;20374;-46
2022/12/04 03:23:15;;;;;;;5.57;3.03;;;;;;;18.40;63.53;98008.72;2070255;28;20046;-46
2022/12/04 03:24:22;;;;;;;4.15;3.42;;;;;;;18.39;63.48;97999.84;2070541;28;20433;-44
2022/12/04 03:25:32;;;;;;;3.97;2.70;;;;;;;18.38;63.48;98006.22;2067968;28;20677;-47
2022/12/04 03:26:36;;;;;;;7.55;2.90;;;;;;;18.35;63.78;97995.13;2071046;28;20076;-49
2022/12/04 03:27:46;;;;;;;4.65;3.88;;;;;;;18.36;63.58;97994.06;2071916;28;20053;-46
2022/12/04 03:28:53;;;;;;;4.03;2.78;;;;;;;18.36;63.62;97988.69;2071347;28;20072;-50
2022/12/04 03:30:01;;;;;;;7.32;3.65;;;;;;;18.35;63.29;97987.88;2072946;28;20080;-46
2022/12/04 03:31:08;;;;;;;4.30;3.05;;;;;;;18.34;63.31;97988.09;2071810;28;20072;-46
2022/12/04 03:32:13;;;;;;;5.15;2.72;;;;;;;18.33;63.50;97986.44;2073887;28;20113;-45
2022/12/04 03:33:17;;;;;;;6.70;2.80;;;;;;;18.35;63.13;97987.06;2070822;28;20042;-47
2022/12/04 03:34:26;;;;;;;5.97;2.80;;;;;;;18.33;63.54;97992.66;2072405;28;20112;-46
2022/12/04 03:35:32;;;;;;;5.00;2.83;;;;;;;18.31;63.24;97982.13;2074187;28;20049;-46
2022/12/04 03:36:37;;;;;;;4.18;2.72;;;;;;;18.31;63.60;97992.06;2073514;28;20060;-46
2022/12/04 03:37:46;;;;;;;3.05;2.28;;;;;;;18.32;63.26;97988.31;2072164;28;20034;-46
2022/12/04 03:38:53;;;;;;;6.78;2.60;;;;;;;18.31;63.24;97981.31;2071374;28;20552;-49
2022/12/04 03:39:58;;;;;;;5.65;2.72;;;;;;;18.29;63.55;97978.00;2069231;28;20065;-45
2022/12/04 03:41:03;;;;;;;8.98;3.20;;;;;;;18.29;63.57;97978.00;2070702;28;20049;-47
2022/12/04 03:42:12;;;;;;;5.60;3.30;;;;;;;18.29;63.44;97967.28;2072582;28;20142;-46
2022/12/04 03:43:22;;;;;;;4.28;2.08;;;;;;;18.32;63.26;97966.84;2067670;28;20109;-47
2022/12/04 03:44:30;;;;;;;5.57;3.95;;;;;;;18.37;63.34;97972.38;2073444;28;20064;-46
2022/12/04 03:45:41;;;;;;;4.78;3.05;;;;;;;18.39;63.34;97964.94;2071257;28;20045;-47
2022/12/04 03:46:52;;;;;;;4.28;2.22;;;;;;;18.42;63.25;97964.50;2073081;28;20057;-48
2022/12/04 03:47:58;;;;;;;6.75;2.28;;;;;;;18.43;63.21;97962.63;2070030;28;20049;-46
2022/12/04 03:49:05;;;;;;;5.38;2.30;;;;;;;18.42;63.41;97956.44;2071468;28;20077;-46
2022/12/04 03:50:13;;;;;;;11.65;3.42;;;;;;;18.44;63.39;97964.25;2069234;28;21576;-46
2022/12/04 03:51:19;;;;;;;5.57;2.28;;;;;;;18.46;63.46;97959.50;2070478;28;20137;-47
2022/12/04 03:52:26;;;;;;;5.22;2.50;;;;;;;18.44;63.50;97954.38;2069731;28;20680;-49
2022/12/04 03:53:36;;;;;;;5.18;2.20;;;;;;;18.41;63.63;97956.66;2069504;28;20042;-46
2022/12/04 03:54:43;;;;;;;8.48;3.47;;;;;;;18.39;63.80;97956.06;2072920;28;20720;-51
2022/12/04 03:55:51;;;;;;;4.18;2.85;;;;;;;18.43;63.80;97949.19;2071264;28;20061;-48
2022/12/04 03:56:56;;;;;;;2.75;2.10;;;;;;;18.42;63.74;97958.31;2069692;28;20155;-45
2022/12/04 03:58:02;;;;;;;5.10;2.00;;;;;;;18.42;63.72;97948.38;2069880;28;20049;-49
2022/12/04 03:59:09;;;;;;;6.82;2.95;;;;;;;18.43;63.59;97952.72;2071291;28;20564;-49
2022/12/04 04:00:13;;;;;;;4.78;2.60;;;;;;;18.46;63.56;97954.94;2072224;28;20045;-48
2022/12/04 04:01:20;;;;;;;3.45;2.40;;;;;;;18.47;63.42;97943.19;2069860;28;20646;-45
2022/12/04 04:02:26;;;;;;;6.70;2.67;;;;;;;18.47;63.68;97947.72;2070520;28;20049;-47
2022/12/04 04:03:29;;;;;;;6.95;3.17;;;;;;;18.45;63.98;97947.13;2069930;28;20505;-47
2022/12/04 04:04:34;;;;;;;7.72;2.55;;;;;;;18.44;63.75;97946.31;2070449;28;20046;-46
2022/12/04 04:05:37;;;;;;;6.18;2.60;;;;;;;18.51;63.67;97936.31;2071761;28;20715;-47
2022/12/04 04:06:44;;;;;;;7.63;2.67;;;;;;;18.53;63.06;97944.16;2070557;28;20049;-48
2022/12/04 04:07:49;;;;;;;4.18;3.03;;;;;;;18.50;63.65;97942.75;2071095;28;20048;-47
2022/12/04 04:08:54;;;;;;;8.00;2.50;;;;;;;18.51;63.60;97944.38;2071548;28;20049;-48
2022/12/04 04:10:02;;;;;;;5.32;1.90;;;;;;;18.47;63.78;97947.72;2068610;28;20058;-49
2022/12/04 04:11:10;;;;;;;6.68;2.53;;;;;;;18.49;63.55;97938.41;2071772;28;20046;-46
2022/12/04 04:12:16;;;;;;;9.90;3.28;;;;;;;18.48;63.83;97933.25;2071096;28;20049;-49
2022/12/04 04:24:32;;;;;;;5.70;2.35;;;;;;;18.44;63.70;97937.41;2070381;28;20046;-46
2022/12/04 04:25:36;;;;;;;4.13;2.45;;;;;;;18.42;63.74;97943.03;2070908;28;20045;-47
2022/12/04 04:26:42;;;;;;;3.80;1.80;;;;;;;18.45;63.72;97939.06;2069218;28;20847;-45
2022/12/04 04:27:50;;;;;;;6.88;2.55;;;;;;;18.45;63.60;97933.72;2071328;28;20049;-48
2022/12/04 04:28:52;;;;;;;3.67;2.22;;;;;;;18.46;63.73;97941.53;2068934;28;20076;-48
2022/12/04 04:29:53;;;;;;;4.05;2.20;;;;;;;18.47;63.48;97945.88;2070950;28;20056;-47
2022/12/04 04:30:58;;;;;;;;;;;;;;;18.34;64.05;97942.47;2070286;28;20054;-49
2022/12/04 04:32:04;;;;;;;4.57;2.63;;;;;;;18.39;63.82;97939.97;2069342;28;19929;-46
2022/12/04 04:33:12;;;;;;;7.63;3.47;;;;;;;18.41;63.84;97935.97;2071120;28;20087;-48
2022/12/04 04:34:19;;;;;;;1.92;1.65;;;;;;;18.40;63.68;97942.41;2068960;28;20109;-45
2022/12/04 04:35:22;;;;;;;2.95;2.22;;;;;;;18.42;63.52;97939.50;2069092;28;20075;-45
2022/12/04 04:36:31;;;;;;;3.60;2.22;;;;;;;18.42;63.43;97937.66;2068423;28;20049;-46
2022/12/04 04:37:45;;;;;;;4.63;2.17;;;;;;;18.41;63.57;97944.03;2068818;28;20638;-47
2022/12/04 04:38:55;;;;;;;4.50;3.03;;;;;;;18.43;63.41;97935.78;2068984;28;20068;-46
2022/12/04 04:40:04;;;;;;;5.88;2.17;;;;;;;18.43;63.54;97939.28;2070434;28;20575;-47
2022/12/04 04:41:11;;;;;;;3.20;2.33;;;;;;;18.41;63.64;97935.97;2071693;28;20049;-47
2022/12/04 04:42:21;;;;;;;7.82;2.53;;;;;;;18.39;63.65;97939.97;2071356;28;20635;-47
2022/12/04 04:43:26;;;;;;;8.00;2.60;;;;;;;18.38;63.69;97938.28;2070645;28;20121;-47
2022/12/04 04:44:33;;;;;;;5.03;1.83;;;;;;;18.41;63.27;97940.53;2071192;28;20051;-47
2022/12/04 04:45:38;;;;;;;4.82;2.55;;;;;;;18.40;63.45;97945.09;2069669;28;20049;-47
2022/12/04 04:46:46;;;;;;;4.88;2.33;;;;;;;18.40;63.76;97936.22;2070064;28;20144;-50
2022/12/04 04:47:51;;;;;;;3.38;2.60;;;;;;;18.41;63.65;97941.34;2070752;28;20648;-49
2022/12/04 04:48:58;;;;;;;8.10;2.63;;;;;;;18.41;63.66;97944.03;2074563;28;20064;-47
2022/12/04 04:50:02;;;;;;;4.63;2.55;;;;;;;18.42;63.68;97934.97;2069308;28;20061;-46
2022/12/04 04:51:05;;;;;;;3.70;1.90;;;;;;;18.41;63.80;97945.91;2068570;28;20050;-47
2022/12/04 04:52:06;;;;;;;6.00;2.83;;;;;;;18.39;64.10;97946.16;2070232;28;20060;-49
2022/12/04 04:53:11;;;;;;;7.63;2.85;;;;;;;18.37;64.14;97948.22;2068973;28;20110;-46
2022/12/04 04:54:15;;;;;;;3.83;2.17;;;;;;;18.38;64.11;97947.16;2068768;28;20042;-47
2022/12/04 04:55:18;;;;;;;5.93;2.08;;;;;;;18.42;63.96;97942.19;2070028;28;20053;-47
2022/12/04 04:56:19;;;;;;;5.38;2.83;;;;;;;18.50;63.92;97952.66;2068842;28;20042;-48
2022/12/04 04:57:29;;;;;;;3.88;2.58;;;;;;;18.56;63.94;97938.34;2069815;28;20057;-47
2022/12/04 04:58:29;;;;;;;6.32;1.88;;;;;;;18.60;63.81;97939.53;2068961;28;20049;-47
2022/12/04 04:59:33;;;;;;;;;;;;;;;18.52;63.95;97943.31;2069663;28;20895;-49
2022/12/04 05:00:34;;;;;;;5.25;2.70;;;;;;;18.61;63.95;97948.41;2070059;28;20734;-46
2022/12/04 05:01:36;;;;;;;;;;;;;;;18.58;64.07;97944.31;2063015;28;20053;-46
2022/12/04 05:02:37;;;;;;;3.95;2.63;;;;;;;18.68;64.17;97949.19;2067655;28;19925;-46
2022/12/04 05:03:40;;;;;;;4.45;2.00;;;;;;;18.75;63.63;97950.81;2069311;28;20054;-49
2022/12/04 05:04:42;;;;;;;2.97;2.08;;;;;;;18.79;63.76;97951.19;2070383;28;20087;-46
2022/12/04 05:05:44;;;;;;;3.72;2.53;;;;;;;18.83;63.64;97949.69;2069998;28;20042;-47
2022/12/04 05:06:44;;;;;;;2.90;1.90;;;;;;;18.86;63.33;97949.28;2069407;28;20053;-46
2022/12/04 05:07:46;;;;;;;;;;;;;;;18.79;64.00;97951.19;2070275;28;20060;-47
2022/12/04 05:08:48;;;;;;;5.45;2.10;;;;;;;18.84;63.88;97947.84;2070641;28;19921;-51
2022/12/04 05:09:49;;;;;;;3.42;1.90;;;;;;;18.89;63.84;97950.69;2069952;28;20060;-48
2022/12/04 05:10:50;;;;;;;3.67;1.90;;;;;;;18.92;63.61;97948.38;2071666;28;20050;-48
2022/12/04 05:11:52;;;;;;;;;;;;;;;18.88;63.97;97944.47;2070013;28;20172;-47
2022/12/04 05:12:53;;;;;;;3.40;1.38;;;;;;;18.94;63.75;97943.63;2071164;28;19936;-47
2022/12/04 05:13:54;;;;;;;;;;;;;;;18.90;63.67;97947.78;2069823;28;20450;-48
2022/12/04 05:14:55;;;;;;;2.10;1.65;;;;;;;18.94;64.01;97953.53;2069506;28;19925;-49
2022/12/04 05:15:58;;;;;;;3.75;2.50;;;;;;;19.05;63.70;97951.97;2069153;28;20053;-47
2022/12/04 05:16:58;;;;;;;13.57;2.47;;;;;;;19.09;63.66;97948.63;2068332;28;20052;-48
2022/12/04 05:18:00;;;;;;;;;;;;;;;19.04;63.62;97955.72;2069427;28;20079;-48
2022/12/04 05:20:21;;;;;;;5.57;2.40;;;;;;;19.18;63.64;97954.53;2071233;28;20120;-47